Flight Track Log - Related Links

Times and Time Zones

All times are in EDT time to prevent confusion due to time zone crossing. See the JBU391 flight status page for this flight to view local times or setup timezone preferences in your user account.

Time Position Orientation Groundspeed Altitude Reporting Facility
EDT Latitude Longitude Course Direction KTS MPH feet Rate Location/Type
Wed 05:55:57 PM 40.7167 -73.8333 201° Southwest 193 222 2,300  Level New York TRACON
Wed 05:56:57 PM 40.6667 -73.8500 194° South 232 267 5,400 2,850 Climbing New York TRACON
Wed 05:57:57 PM 40.6000 -73.9000 210° Southwest 253 291 8,000 2,300 Climbing New York TRACON
Wed 05:58:00 PM 40.3221 -74.0807 201° Southwest  Level FlightAware Approximate
Wed 05:58:57 PM 40.5500 -73.9500 217° Southwest 284 327 10,000  Level New York TRACON
Wed 05:59:00 PM 40.2112 -74.1388 217° Southwest  Level FlightAware Approximate
Wed 05:59:51 PM 40.4667 -74.0000 205° Southwest 337 388 10,000  Level New York TRACON
Wed 06:00:00 PM 40.1038 -74.1898 201° Southwest  Level FlightAware Approximate
Wed 06:00:51 PM 40.4000 -74.0667 217° Southwest 339 390 11,400  Level New York TRACON
Wed 06:01:00 PM 40.0021 -74.2489 201° Southwest  Level FlightAware Approximate
Wed 06:01:17 PM 40.3728 -74.1083 229° Southwest 344 396 12,300  Level New York Center
Wed 06:02:17 PM 40.2956 -74.1889 219° Southwest 339 390 15,700 2,826 Climbing New York Center
Wed 06:03:18 PM 40.2308 -74.2617 221° Southwest 344 396 18,000 2,650 Climbing New York Center
Wed 06:04:17 PM 40.1375 -74.3167 204° Southwest 344 396 21,000 2,357 Climbing New York Center
Wed 06:04:42 PM 40.1025 -74.3250 190° South 445 512 21,300 1,091 Climbing Washington Center
Wed 06:06:07 PM 39.9533 -74.3817 196° South 378 435 23,000 1,117 Climbing Washington Center
Wed 06:07:07 PM 39.8494 -74.4294 199° South 399 459 24,000 500 Climbing Washington Center
Wed 06:08:07 PM 39.7586 -74.5092 214° Southwest 399 459 24,000  Level Washington Center
Wed 06:09:06 PM 39.6825 -74.6072 225° Southwest 394 453 24,000 50 Level Washington Center
Wed 06:10:06 PM 39.6061 -74.7081 225° Southwest 394 453 24,100 793 Climbing Washington Center
Wed 06:11:07 PM 39.5297 -74.8114 226° Southwest 394 453 25,600 1,289 Climbing Washington Center
Wed 06:12:07 PM 39.4511 -74.9169 226° Southwest 404 465 26,700 908 Climbing Washington Center
Wed 06:13:06 PM 39.3664 -75.0253 225° Southwest 414 476 27,400 950 Climbing Washington Center
Wed 06:14:07 PM 39.2644 -75.1144 214° Southwest 427 491 28,600 1,091 Climbing Washington Center
Wed 06:15:07 PM 39.1461 -75.1742 201° Southwest 443 510 29,600 1,261 Climbing Washington Center
Wed 06:16:06 PM 39.0253 -75.2256 198° South 454 522 31,100 1,400 Climbing Washington Center
Wed 06:17:07 PM 38.9067 -75.2769 199° South 459 528 32,400 1,091 Climbing Washington Center
Wed 06:18:07 PM 38.7858 -75.3306 199° South 459 528 33,300 800 Climbing Washington Center
Wed 06:19:07 PM 38.6628 -75.3844 199° South 459 528 34,000 350 Climbing Washington Center
Wed 06:20:07 PM 38.5442 -75.4272 196° South 459 528 34,000  Level Washington Center
Wed 06:21:07 PM 38.4253 -75.4750 197° South 459 528 34,000 300 Level Washington Center
Wed 06:22:07 PM 38.3067 -75.5442 205° Southwest 459 528 34,600 750 Climbing Washington Center
Wed 06:23:07 PM 38.2064 -75.6314 214° Southwest 452 520 35,500 706 Climbing Washington Center
Wed 06:24:06 PM 38.0981 -75.7078 209° Southwest 452 520 36,000 252 Climbing Washington Center
Wed 06:25:06 PM 37.9917 -75.7894 211° Southwest 452 520 36,000  Level Washington Center
Wed 06:26:06 PM 37.8808 -75.8600 207° Southwest 452 520 36,000  Level Washington Center
Wed 06:27:07 PM 37.7742 -75.9439 212° Southwest 452 520 36,000  Level Washington Center
Wed 06:28:07 PM 37.6656 -76.0194 209° Southwest 452 520 36,000  Level Washington Center
Wed 06:29:07 PM 37.5589 -76.0947 209° Southwest 447 514 36,000  Level Washington Center
Wed 06:30:07 PM 37.4461 -76.1647 206° Southwest 447 514 36,000  Level Washington Center
Wed 06:31:06 PM 37.3372 -76.2422 210° Southwest 447 514 36,000  Level Washington Center
Wed 06:32:06 PM 37.2283 -76.3144 208° Southwest 447 514 36,000  Level Washington Center
Wed 06:33:07 PM 37.1194 -76.3914 209° Southwest 447 514 36,000  Level Washington Center
Wed 06:34:07 PM 37.0103 -76.4606 207° Southwest 442 509 36,000  Level Washington Center
Wed 06:35:06 PM 36.9014 -76.5372 209° Southwest 442 509 36,000  Level Washington Center
Wed 06:36:07 PM 36.7922 -76.6111 208° Southwest 442 509 36,000  Level Washington Center
Wed 06:37:06 PM 36.6831 -76.6900 210° Southwest 442 509 36,000  Level Washington Center
Wed 06:39:06 PM 36.4625 -76.8367 208° Southwest 448 516 36,000  Level Washington Center
Wed 06:40:07 PM 36.3533 -76.9125 209° Southwest 448 516 36,000  Level Washington Center
Wed 06:41:07 PM 36.2419 -76.9828 207° Southwest 448 516 36,000  Level Washington Center
Wed 06:42:07 PM 36.1306 -77.0553 208° Southwest 448 516 36,000  Level Washington Center
Wed 06:43:06 PM 36.0292 -77.1381 213° Southwest 453 521 36,000  Level Washington Center
Wed 06:44:06 PM 35.9319 -77.2339 219° Southwest 447 514 36,000  Level Washington Center
Wed 06:45:07 PM 35.8325 -77.3264 217° Southwest 447 514 36,000  Level Washington Center
Wed 06:46:07 PM 35.7372 -77.4217 219° Southwest 452 520 36,000  Level Washington Center
Wed 06:47:07 PM 35.6400 -77.5139 218° Southwest 452 520 36,000  Level Washington Center
Wed 06:48:07 PM 35.5403 -77.6086 218° Southwest 452 520 36,000  Level Washington Center
Wed 06:49:07 PM 35.4406 -77.7003 217° Southwest 452 520 36,000  Level Washington Center
Wed 06:50:07 PM 35.3408 -77.7972 218° Southwest 452 520 36,000  Level Washington Center
Wed 06:51:06 PM 35.2431 -77.8911 218° Southwest 452 520 36,000  Level Washington Center
Wed 06:52:07 PM 35.1453 -77.9822 217° Southwest 452 520 36,000  Level Washington Center
Wed 06:53:07 PM 35.0494 -78.0733 218° Southwest 452 520 36,000  Level Washington Center
Wed 06:54:07 PM 34.9517 -78.1642 217° Southwest 452 520 36,000  Level Washington Center
Wed 06:55:07 PM 34.8536 -78.2544 217° Southwest 452 520 36,000  Level Washington Center
Wed 06:56:07 PM 34.7597 -78.3500 220° Southwest 452 520 36,000  Level Washington Center
Wed 06:58:28 PM 34.5397 -78.5472 216° Southwest 458 527 36,000 -30 Level Jacksonville Center
Wed 06:59:28 PM 34.4369 -78.6506 220° Southwest 448 516 35,900  Descending Jacksonville Center
Wed 07:00:28 PM 34.3397 -78.7383 217° Southwest 448 516 36,000 50 Climbing Jacksonville Center
Wed 07:01:28 PM 34.2247 -78.7967 203° Southwest 442 509 36,000  Level Jacksonville Center
Wed 07:02:28 PM 34.1097 -78.8522 202° Southwest 442 509 36,000  Level Jacksonville Center
Wed 07:03:28 PM 33.9967 -78.9075 202° Southwest 447 514 36,000  Level Jacksonville Center
Wed 07:04:28 PM 33.8839 -78.9650 203° Southwest 447 514 36,000  Level Jacksonville Center
Wed 07:05:28 PM 33.7686 -79.0203 202° Southwest 447 514 36,000  Level Jacksonville Center
Wed 07:06:28 PM 33.6514 -79.0778 202° Southwest 447 514 36,000  Level Jacksonville Center
Wed 07:07:28 PM 33.5403 -79.1300 201° Southwest 447 514 36,000  Level Jacksonville Center
Wed 07:08:28 PM 33.4253 -79.1869 202° Southwest 441 507 36,000  Level Jacksonville Center
Wed 07:09:28 PM 33.3119 -79.2439 203° Southwest 441 507 36,000  Level Jacksonville Center
Wed 07:10:28 PM 33.1967 -79.2983 202° Southwest 447 514 36,000  Level Jacksonville Center
Wed 07:11:28 PM 33.0814 -79.3550 202° Southwest 447 514 36,000  Level Jacksonville Center
Wed 07:12:28 PM 32.9889 -79.3983 201° Southwest 447 514 36,000  Level Jacksonville Center
Wed 07:13:28 PM 32.8631 -79.4600 202° Southwest 447 514 36,000  Level Jacksonville Center
Wed 07:14:28 PM 32.7478 -79.5161 202° Southwest 447 514 36,000 -50 Level Jacksonville Center
Wed 07:15:28 PM 32.6322 -79.5725 202° Southwest 447 514 35,900  Descending Jacksonville Center
Wed 07:16:28 PM 32.5189 -79.6258 202° Southwest 447 514 36,000 50 Climbing Jacksonville Center
Wed 07:17:28 PM 32.4033 -79.6817 202° Southwest 447 514 36,000  Level Jacksonville Center
Wed 07:18:28 PM 32.2881 -79.7372 202° Southwest 447 514 36,000  Level Jacksonville Center
Wed 07:19:28 PM 32.1725 -79.7928 202° Southwest 447 514 36,000  Level Jacksonville Center
Wed 07:20:28 PM 32.0547 -79.8481 202° Southwest 447 514 36,000  Level Jacksonville Center
Wed 07:21:28 PM 31.9372 -79.9036 202° Southwest 452 520 36,000  Level Jacksonville Center
Wed 07:22:28 PM 31.8214 -79.9586 202° Southwest 452 520 36,000  Level Jacksonville Center
Wed 07:23:28 PM 31.7058 -80.0136 202° Southwest 452 520 36,000 -50 Level Jacksonville Center
Wed 07:24:28 PM 31.5881 -80.0708 202° Southwest 452 520 35,900 -500 Descending Jacksonville Center
Wed 07:25:28 PM 31.4744 -80.1231 201° Southwest 447 514 35,000 -900 Descending Jacksonville Center
Wed 07:26:28 PM 31.3589 -80.1800 203° Southwest 452 520 34,100 -500 Descending Jacksonville Center
Wed 07:27:28 PM 31.2306 -80.2394 202° Southwest 453 521 34,000 -50 Descending Jacksonville Center
Wed 07:28:28 PM 31.1106 -80.2914 200° South 453 521 34,000  Level Jacksonville Center
Wed 07:29:28 PM 30.9947 -80.3481 203° Southwest 453 521 34,000  Level Jacksonville Center
Wed 07:30:28 PM 30.8769 -80.3994 201° Southwest 453 521 34,000  Level Jacksonville Center
Wed 07:31:28 PM 30.7567 -80.4533 201° Southwest 453 521 34,000  Level Jacksonville Center
Wed 07:32:28 PM 30.6408 -80.5094 203° Southwest 453 521 34,000  Level Jacksonville Center
Wed 07:33:28 PM 30.5228 -80.5631 201° Southwest 453 521 34,000  Level Jacksonville Center
Wed 07:34:28 PM 30.4069 -80.6164 202° Southwest 453 521 34,000 -200 Level Jacksonville Center
Wed 07:35:28 PM 30.2889 -80.6697 201° Southwest 453 521 33,600 -900 Descending Jacksonville Center
Wed 07:36:28 PM 30.1728 -80.7231 202° Southwest 453 521 32,200 -1,850 Descending Jacksonville Center
Wed 07:37:28 PM 30.0547 -80.7761 201° Southwest 453 521 29,900 -2,200 Descending Jacksonville Center
Wed 07:38:28 PM 29.9408 -80.8289 202° Southwest 448 516 27,800 -2,100 Descending Jacksonville Center
Wed 07:39:28 PM 29.8311 -80.8792 202° Southwest 442 509 25,700 -2,050 Descending Jacksonville Center
Wed 07:40:28 PM 29.7211 -80.9267 201° Southwest 435 501 23,700 -2,000 Descending Jacksonville Center
Wed 07:41:28 PM 29.6153 -80.9742 201° Southwest 425 489 21,700 -1,750 Descending Jacksonville Center
Wed 07:42:28 PM 29.5117 -81.0239 203° Southwest 415 478 20,200 -1,600 Descending Jacksonville Center
Wed 07:43:28 PM 29.4247 -81.0661 203° Southwest 393 452 18,500 -1,900 Descending Jacksonville Center
Wed 07:44:28 PM 29.3333 -81.0989 197° South 377 434 16,400 -2,100 Descending Jacksonville Center
Wed 07:45:28 PM 29.2311 -81.1128 187° South 366 421 14,300 -1,950 Descending Jacksonville Center
Wed 07:46:28 PM 29.1350 -81.1025 175° South 350 403 12,500 -1,150 Descending Jacksonville Center
Wed 07:47:28 PM 29.0411 -81.0947 176° South 345 397 12,000 -350 Descending Jacksonville Center
Wed 07:48:28 PM 28.9572 -81.0844 174° South 331 381 11,800 -900 Descending Jacksonville Center
Wed 07:49:28 PM 28.8758 -81.0692 171° South 312 359 10,200 -1,689 Descending Jacksonville Center
Wed 07:50:11 PM 28.8167 -81.0667 178° South 284 327 8,900 -1,107 Descending Orlando TRACON
Wed 07:51:11 PM 28.7667 -81.1333 229° Southwest 249 287 8,300 -800 Descending Orlando TRACON
Wed 07:52:11 PM 28.7333 -81.2000 240° Southwest 230 265 7,300 -1,619 Descending Orlando TRACON
Wed 07:53:17 PM 28.6833 -81.2333 210° Southwest 216 249 4,900 -1,789 Descending Orlando TRACON
Wed 07:54:05 PM 28.6333 -81.2667 210° Southwest 228 262 3,900 -1,263 Descending Orlando TRACON
Wed 07:55:11 PM 28.5833 -81.3000 210° Southwest 222 255 2,500 -709 Descending Orlando TRACON
Wed 07:56:12 PM 28.5333 -81.3333 210° Southwest 156 180 2,400 -714 Descending Orlando TRACON
Wed 07:57:17 PM 28.5000 -81.3333 180° South 148 170 1,000 -1,292 Descending Orlando TRACON
Wed 07:59:00 PM 28.4294 -81.3090 180° South  Level Estimated
Wed 08:06:00 PM 28.4294 -81.3090 336° Northwest  Level Estimated
Wed 08:07:00 PM 28.4294 -81.3090 336° Northwest  Level Estimated

Login

Don't have an account? Register now (free) for customized features, flight alerts, and more!